sensor_id;sensor_type;location;lat;lon;timestamp;P1;durP1;ratioP1;P2;durP2;ratioP2
13032;SDS011;6583;42.632;23.298;2023-03-13T00:02:25;4.60;;;3.93;;
13032;SDS011;6583;42.632;23.298;2023-03-13T00:04:52;5.67;;;4.27;;
13032;SDS011;6583;42.632;23.298;2023-03-13T00:07:18;5.03;;;4.30;;
13032;SDS011;6583;42.632;23.298;2023-03-13T00:09:45;5.83;;;3.87;;
13032;SDS011;6583;42.632;23.298;2023-03-13T00:12:12;4.37;;;3.90;;
13032;SDS011;6583;42.632;23.298;2023-03-13T00:14:38;5.50;;;3.97;;
13032;SDS011;6583;42.632;23.298;2023-03-13T00:17:05;4.30;;;3.90;;
13032;SDS011;6583;42.632;23.298;2023-03-13T00:19:33;4.43;;;3.80;;
13032;SDS011;6583;42.632;23.298;2023-03-13T00:21:59;5.70;;;4.53;;
13032;SDS011;6583;42.632;23.298;2023-03-13T00:24:26;5.90;;;4.53;;
13032;SDS011;6583;42.632;23.298;2023-03-13T00:26:53;4.97;;;4.10;;
13032;SDS011;6583;42.632;23.298;2023-03-13T00:29:20;4.80;;;4.03;;
13032;SDS011;6583;42.632;23.298;2023-03-13T00:31:47;4.63;;;4.00;;
13032;SDS011;6583;42.632;23.298;2023-03-13T00:34:13;4.47;;;3.83;;
13032;SDS011;6583;42.632;23.298;2023-03-13T00:36:41;4.93;;;4.40;;
13032;SDS011;6583;42.632;23.298;2023-03-13T00:39:08;4.40;;;3.77;;
13032;SDS011;6583;42.632;23.298;2023-03-13T00:41:35;4.30;;;3.90;;
13032;SDS011;6583;42.632;23.298;2023-03-13T00:44:02;4.57;;;4.17;;
13032;SDS011;6583;42.632;23.298;2023-03-13T00:46:29;5.13;;;3.80;;
13032;SDS011;6583;42.632;23.298;2023-03-13T00:48:56;4.83;;;4.23;;
13032;SDS011;6583;42.632;23.298;2023-03-13T00:51:25;5.13;;;4.10;;
13032;SDS011;6583;42.632;23.298;2023-03-13T00:53:54;5.20;;;3.90;;
13032;SDS011;6583;42.632;23.298;2023-03-13T00:56:24;4.37;;;3.93;;
13032;SDS011;6583;42.632;23.298;2023-03-13T00:58:51;4.67;;;4.13;;
13032;SDS011;6583;42.632;23.298;2023-03-13T01:01:18;5.03;;;4.30;;
13032;SDS011;6583;42.632;23.298;2023-03-13T01:03:48;5.47;;;4.37;;
13032;SDS011;6583;42.632;23.298;2023-03-13T01:06:17;5.03;;;4.47;;
13032;SDS011;6583;42.632;23.298;2023-03-13T01:08:45;5.67;;;4.40;;
13032;SDS011;6583;42.632;23.298;2023-03-13T01:11:14;4.40;;;4.00;;
13032;SDS011;6583;42.632;23.298;2023-03-13T01:13:43;4.63;;;4.13;;
13032;SDS011;6583;42.632;23.298;2023-03-13T01:16:10;4.40;;;3.97;;
13032;SDS011;6583;42.632;23.298;2023-03-13T01:18:39;5.20;;;4.07;;
13032;SDS011;6583;42.632;23.298;2023-03-13T01:21:07;4.70;;;3.90;;
13032;SDS011;6583;42.632;23.298;2023-03-13T01:23:34;4.07;;;3.67;;
13032;SDS011;6583;42.632;23.298;2023-03-13T01:26:03;4.20;;;3.70;;
13032;SDS011;6583;42.632;23.298;2023-03-13T01:28:31;4.10;;;3.60;;
13032;SDS011;6583;42.632;23.298;2023-03-13T01:30:58;5.57;;;3.60;;
13032;SDS011;6583;42.632;23.298;2023-03-13T01:33:25;3.80;;;3.40;;
13032;SDS011;6583;42.632;23.298;2023-03-13T01:35:52;3.50;;;3.00;;
13032;SDS011;6583;42.632;23.298;2023-03-13T01:38:26;3.63;;;3.33;;
13032;SDS011;6583;42.632;23.298;2023-03-13T01:40:53;4.53;;;3.33;;
13032;SDS011;6583;42.632;23.298;2023-03-13T01:43:20;3.80;;;3.40;;
13032;SDS011;6583;42.632;23.298;2023-03-13T01:46:00;3.57;;;3.10;;
13032;SDS011;6583;42.632;23.298;2023-03-13T01:48:30;4.13;;;3.43;;
13032;SDS011;6583;42.632;23.298;2023-03-13T01:51:03;4.03;;;3.40;;
13032;SDS011;6583;42.632;23.298;2023-03-13T01:53:34;3.30;;;3.00;;
13032;SDS011;6583;42.632;23.298;2023-03-13T01:56:05;3.43;;;3.00;;
13032;SDS011;6583;42.632;23.298;2023-03-13T01:58:36;3.90;;;2.90;;
13032;SDS011;6583;42.632;23.298;2023-03-13T02:01:04;2.77;;;2.50;;
13032;SDS011;6583;42.632;23.298;2023-03-13T02:03:31;4.30;;;2.87;;
13032;SDS011;6583;42.632;23.298;2023-03-13T02:06:01;3.93;;;2.87;;
13032;SDS011;6583;42.632;23.298;2023-03-13T02:08:30;3.17;;;2.83;;
13032;SDS011;6583;42.632;23.298;2023-03-13T02:11:02;3.27;;;2.97;;
13032;SDS011;6583;42.632;23.298;2023-03-13T02:13:32;2.73;;;2.40;;
13032;SDS011;6583;42.632;23.298;2023-03-13T02:15:59;2.93;;;2.63;;
13032;SDS011;6583;42.632;23.298;2023-03-13T02:18:28;3.20;;;2.67;;
13032;SDS011;6583;42.632;23.298;2023-03-13T02:20:55;3.20;;;2.70;;
13032;SDS011;6583;42.632;23.298;2023-03-13T02:23:30;3.20;;;2.90;;
13032;SDS011;6583;42.632;23.298;2023-03-13T02:26:03;3.57;;;2.80;;
13032;SDS011;6583;42.632;23.298;2023-03-13T02:28:31;3.40;;;2.90;;
13032;SDS011;6583;42.632;23.298;2023-03-13T02:30:59;3.80;;;3.10;;
13032;SDS011;6583;42.632;23.298;2023-03-13T02:33:27;5.87;;;3.50;;
13032;SDS011;6583;42.632;23.298;2023-03-13T02:35:56;7.80;;;4.43;;
13032;SDS011;6583;42.632;23.298;2023-03-13T02:38:25;7.60;;;4.30;;
13032;SDS011;6583;42.632;23.298;2023-03-13T02:40:54;5.30;;;3.40;;
13032;SDS011;6583;42.632;23.298;2023-03-13T02:43:25;5.30;;;3.30;;
13032;SDS011;6583;42.632;23.298;2023-03-13T02:46:02;4.10;;;2.80;;
13032;SDS011;6583;42.632;23.298;2023-03-13T02:48:32;6.20;;;3.37;;
13032;SDS011;6583;42.632;23.298;2023-03-13T02:51:02;5.47;;;3.70;;
13032;SDS011;6583;42.632;23.298;2023-03-13T02:53:31;6.73;;;4.50;;
13032;SDS011;6583;42.632;23.298;2023-03-13T02:56:00;5.63;;;3.60;;
13032;SDS011;6583;42.632;23.298;2023-03-13T02:58:35;4.77;;;3.40;;
13032;SDS011;6583;42.632;23.298;2023-03-13T03:01:07;3.93;;;3.13;;
13032;SDS011;6583;42.632;23.298;2023-03-13T03:03:34;4.03;;;3.10;;
13032;SDS011;6583;42.632;23.298;2023-03-13T03:06:01;3.83;;;3.20;;
13032;SDS011;6583;42.632;23.298;2023-03-13T03:08:28;3.30;;;2.73;;
13032;SDS011;6583;42.632;23.298;2023-03-13T03:10:55;3.10;;;2.70;;
13032;SDS011;6583;42.632;23.298;2023-03-13T03:13:22;3.50;;;3.20;;
13032;SDS011;6583;42.632;23.298;2023-03-13T03:15:50;3.43;;;2.90;;
13032;SDS011;6583;42.632;23.298;2023-03-13T03:18:17;3.33;;;2.83;;
13032;SDS011;6583;42.632;23.298;2023-03-13T03:20:43;10.63;;;5.93;;
13032;SDS011;6583;42.632;23.298;2023-03-13T03:23:10;10.07;;;5.33;;
13032;SDS011;6583;42.632;23.298;2023-03-13T03:25:37;7.60;;;4.30;;
13032;SDS011;6583;42.632;23.298;2023-03-13T03:28:04;8.53;;;4.57;;
13032;SDS011;6583;42.632;23.298;2023-03-13T03:30:30;16.47;;;7.27;;
13032;SDS011;6583;42.632;23.298;2023-03-13T03:32:58;14.23;;;7.23;;
13032;SDS011;6583;42.632;23.298;2023-03-13T03:35:29;9.93;;;5.17;;
13032;SDS011;6583;42.632;23.298;2023-03-13T03:37:58;7.13;;;4.77;;
13032;SDS011;6583;42.632;23.298;2023-03-13T03:40:24;7.47;;;4.57;;
13032;SDS011;6583;42.632;23.298;2023-03-13T03:42:52;5.13;;;4.00;;
13032;SDS011;6583;42.632;23.298;2023-03-13T03:45:18;4.80;;;3.73;;
13032;SDS011;6583;42.632;23.298;2023-03-13T03:47:45;5.40;;;4.03;;
13032;SDS011;6583;42.632;23.298;2023-03-13T03:50:13;5.20;;;3.80;;
13032;SDS011;6583;42.632;23.298;2023-03-13T03:52:40;4.60;;;3.87;;
13032;SDS011;6583;42.632;23.298;2023-03-13T03:55:07;4.47;;;3.80;;
13032;SDS011;6583;42.632;23.298;2023-03-13T03:57:34;4.73;;;3.90;;
13032;SDS011;6583;42.632;23.298;2023-03-13T04:00:01;3.60;;;3.20;;
13032;SDS011;6583;42.632;23.298;2023-03-13T04:02:30;3.53;;;3.13;;
13032;SDS011;6583;42.632;23.298;2023-03-13T04:04:56;3.77;;;3.23;;
13032;SDS011;6583;42.632;23.298;2023-03-13T04:07:24;3.57;;;3.20;;
13032;SDS011;6583;42.632;23.298;2023-03-13T04:09:51;3.40;;;3.07;;
13032;SDS011;6583;42.632;23.298;2023-03-13T04:12:18;3.27;;;2.97;;
13032;SDS011;6583;42.632;23.298;2023-03-13T04:14:44;3.50;;;3.00;;
13032;SDS011;6583;42.632;23.298;2023-03-13T04:17:11;3.20;;;2.90;;
13032;SDS011;6583;42.632;23.298;2023-03-13T04:19:38;3.47;;;3.17;;
13032;SDS011;6583;42.632;23.298;2023-03-13T04:22:04;4.07;;;3.13;;
13032;SDS011;6583;42.632;23.298;2023-03-13T04:24:32;3.90;;;3.40;;
13032;SDS011;6583;42.632;23.298;2023-03-13T04:26:59;4.77;;;3.20;;
13032;SDS011;6583;42.632;23.298;2023-03-13T04:29:27;7.03;;;3.50;;
13032;SDS011;6583;42.632;23.298;2023-03-13T04:31:54;11.90;;;3.87;;
13032;SDS011;6583;42.632;23.298;2023-03-13T04:34:21;8.60;;;3.07;;
13032;SDS011;6583;42.632;23.298;2023-03-13T04:36:47;7.87;;;3.33;;
13032;SDS011;6583;42.632;23.298;2023-03-13T04:39:14;3.37;;;3.00;;
13032;SDS011;6583;42.632;23.298;2023-03-13T04:41:42;3.63;;;3.30;;
13032;SDS011;6583;42.632;23.298;2023-03-13T04:44:09;7.17;;;3.37;;
13032;SDS011;6583;42.632;23.298;2023-03-13T04:46:36;5.53;;;3.23;;
13032;SDS011;6583;42.632;23.298;2023-03-13T04:49:02;4.30;;;3.60;;
13032;SDS011;6583;42.632;23.298;2023-03-13T04:51:29;5.63;;;3.60;;
13032;SDS011;6583;42.632;23.298;2023-03-13T04:53:56;7.63;;;3.60;;
13032;SDS011;6583;42.632;23.298;2023-03-13T04:56:23;5.67;;;3.80;;
13032;SDS011;6583;42.632;23.298;2023-03-13T04:58:52;5.03;;;3.67;;
13032;SDS011;6583;42.632;23.298;2023-03-13T05:01:19;4.50;;;3.57;;
13032;SDS011;6583;42.632;23.298;2023-03-13T05:03:46;8.37;;;4.30;;
13032;SDS011;6583;42.632;23.298;2023-03-13T05:06:12;4.27;;;3.50;;
13032;SDS011;6583;42.632;23.298;2023-03-13T05:08:39;3.90;;;3.43;;
13032;SDS011;6583;42.632;23.298;2023-03-13T05:11:06;4.83;;;3.43;;
13032;SDS011;6583;42.632;23.298;2023-03-13T05:13:32;4.77;;;3.50;;
13032;SDS011;6583;42.632;23.298;2023-03-13T05:16:00;4.63;;;3.43;;
13032;SDS011;6583;42.632;23.298;2023-03-13T05:18:27;3.90;;;3.50;;
13032;SDS011;6583;42.632;23.298;2023-03-13T05:20:54;4.57;;;3.87;;
13032;SDS011;6583;42.632;23.298;2023-03-13T05:23:21;5.10;;;3.57;;
13032;SDS011;6583;42.632;23.298;2023-03-13T05:25:47;4.83;;;3.97;;
13032;SDS011;6583;42.632;23.298;2023-03-13T05:28:14;8.70;;;4.93;;
13032;SDS011;6583;42.632;23.298;2023-03-13T05:30:41;8.50;;;5.80;;
13032;SDS011;6583;42.632;23.298;2023-03-13T05:33:09;7.70;;;5.97;;
13032;SDS011;6583;42.632;23.298;2023-03-13T05:35:35;7.70;;;6.30;;
13032;SDS011;6583;42.632;23.298;2023-03-13T05:38:02;11.03;;;8.97;;
13032;SDS011;6583;42.632;23.298;2023-03-13T05:40:29;10.17;;;8.57;;
13032;SDS011;6583;42.632;23.298;2023-03-13T05:42:55;10.70;;;8.77;;
13032;SDS011;6583;42.632;23.298;2023-03-13T05:45:23;16.63;;;11.13;;
13032;SDS011;6583;42.632;23.298;2023-03-13T05:47:50;16.20;;;11.30;;
13032;SDS011;6583;42.632;23.298;2023-03-13T05:50:18;17.93;;;10.93;;
13032;SDS011;6583;42.632;23.298;2023-03-13T05:52:44;16.03;;;10.87;;
13032;SDS011;6583;42.632;23.298;2023-03-13T05:55:11;12.47;;;10.27;;
13032;SDS011;6583;42.632;23.298;2023-03-13T05:57:38;18.77;;;11.43;;
13032;SDS011;6583;42.632;23.298;2023-03-13T06:00:05;14.00;;;9.37;;
13032;SDS011;6583;42.632;23.298;2023-03-13T06:02:32;12.03;;;8.60;;
13032;SDS011;6583;42.632;23.298;2023-03-13T06:04:59;12.87;;;9.53;;
13032;SDS011;6583;42.632;23.298;2023-03-13T06:07:27;12.07;;;8.97;;
13032;SDS011;6583;42.632;23.298;2023-03-13T06:09:54;12.63;;;8.53;;
13032;SDS011;6583;42.632;23.298;2023-03-13T06:12:20;10.73;;;8.40;;
13032;SDS011;6583;42.632;23.298;2023-03-13T06:14:47;13.37;;;9.10;;
13032;SDS011;6583;42.632;23.298;2023-03-13T06:17:14;11.70;;;8.97;;
13032;SDS011;6583;42.632;23.298;2023-03-13T06:19:40;13.93;;;9.80;;
13032;SDS011;6583;42.632;23.298;2023-03-13T06:22:07;14.37;;;9.50;;
13032;SDS011;6583;42.632;23.298;2023-03-13T06:24:35;13.13;;;8.63;;
13032;SDS011;6583;42.632;23.298;2023-03-13T06:27:02;11.57;;;9.30;;
13032;SDS011;6583;42.632;23.298;2023-03-13T06:29:29;13.50;;;9.97;;
13032;SDS011;6583;42.632;23.298;2023-03-13T06:31:55;13.80;;;9.63;;
13032;SDS011;6583;42.632;23.298;2023-03-13T06:34:22;12.87;;;9.97;;
13032;SDS011;6583;42.632;23.298;2023-03-13T06:36:48;13.43;;;9.97;;
13032;SDS011;6583;42.632;23.298;2023-03-13T06:39:15;12.60;;;9.67;;
13032;SDS011;6583;42.632;23.298;2023-03-13T06:41:43;11.30;;;9.27;;
13032;SDS011;6583;42.632;23.298;2023-03-13T06:44:10;13.53;;;9.23;;
13032;SDS011;6583;42.632;23.298;2023-03-13T06:46:37;10.97;;;8.97;;
13032;SDS011;6583;42.632;23.298;2023-03-13T06:49:03;13.03;;;9.90;;
13032;SDS011;6583;42.632;23.298;2023-03-13T06:51:31;13.03;;;10.00;;
13032;SDS011;6583;42.632;23.298;2023-03-13T06:53:57;14.17;;;9.67;;
13032;SDS011;6583;42.632;23.298;2023-03-13T06:56:24;14.07;;;9.63;;
13032;SDS011;6583;42.632;23.298;2023-03-13T06:58:52;13.23;;;9.30;;
13032;SDS011;6583;42.632;23.298;2023-03-13T07:01:19;11.57;;;10.07;;
13032;SDS011;6583;42.632;23.298;2023-03-13T07:03:46;11.57;;;9.10;;
13032;SDS011;6583;42.632;23.298;2023-03-13T07:06:13;12.53;;;9.10;;
13032;SDS011;6583;42.632;23.298;2023-03-13T07:08:40;14.10;;;9.73;;
13032;SDS011;6583;42.632;23.298;2023-03-13T07:11:08;11.33;;;9.20;;
13032;SDS011;6583;42.632;23.298;2023-03-13T07:13:36;11.60;;;9.73;;
13032;SDS011;6583;42.632;23.298;2023-03-13T07:16:05;15.03;;;9.90;;
13032;SDS011;6583;42.632;23.298;2023-03-13T07:18:34;14.33;;;9.90;;
13032;SDS011;6583;42.632;23.298;2023-03-13T07:21:01;12.47;;;10.00;;
13032;SDS011;6583;42.632;23.298;2023-03-13T07:23:30;11.40;;;9.77;;
13032;SDS011;6583;42.632;23.298;2023-03-13T07:25:58;12.13;;;9.87;;
13032;SDS011;6583;42.632;23.298;2023-03-13T07:28:27;12.33;;;10.23;;
13032;SDS011;6583;42.632;23.298;2023-03-13T07:30:55;12.90;;;9.73;;
13032;SDS011;6583;42.632;23.298;2023-03-13T07:33:30;11.47;;;9.60;;
13032;SDS011;6583;42.632;23.298;2023-03-13T07:35:57;15.10;;;9.40;;
13032;SDS011;6583;42.632;23.298;2023-03-13T07:38:24;11.90;;;9.93;;
13032;SDS011;6583;42.632;23.298;2023-03-13T07:40:51;13.10;;;9.53;;
13032;SDS011;6583;42.632;23.298;2023-03-13T07:43:19;10.73;;;9.07;;
13032;SDS011;6583;42.632;23.298;2023-03-13T07:45:53;12.00;;;9.73;;
13032;SDS011;6583;42.632;23.298;2023-03-13T07:48:21;13.60;;;10.00;;
13032;SDS011;6583;42.632;23.298;2023-03-13T07:50:50;13.00;;;10.00;;
13032;SDS011;6583;42.632;23.298;2023-03-13T07:53:17;12.70;;;9.60;;
13032;SDS011;6583;42.632;23.298;2023-03-13T07:55:55;11.83;;;9.60;;
13032;SDS011;6583;42.632;23.298;2023-03-13T07:58:24;13.40;;;9.30;;
13032;SDS011;6583;42.632;23.298;2023-03-13T08:00:51;9.73;;;8.67;;
13032;SDS011;6583;42.632;23.298;2023-03-13T08:03:18;11.80;;;10.10;;
13032;SDS011;6583;42.632;23.298;2023-03-13T08:05:45;12.27;;;9.33;;
13032;SDS011;6583;42.632;23.298;2023-03-13T08:08:13;13.30;;;10.20;;
13032;SDS011;6583;42.632;23.298;2023-03-13T08:10:40;12.43;;;10.00;;
13032;SDS011;6583;42.632;23.298;2023-03-13T08:13:06;13.77;;;10.13;;
13032;SDS011;6583;42.632;23.298;2023-03-13T08:15:33;13.33;;;10.50;;
13032;SDS011;6583;42.632;23.298;2023-03-13T08:18:00;11.93;;;10.33;;
13032;SDS011;6583;42.632;23.298;2023-03-13T08:20:26;14.17;;;10.80;;
13032;SDS011;6583;42.632;23.298;2023-03-13T08:22:54;12.70;;;10.17;;
13032;SDS011;6583;42.632;23.298;2023-03-13T08:25:23;14.53;;;10.87;;
13032;SDS011;6583;42.632;23.298;2023-03-13T08:27:50;15.67;;;11.70;;
13032;SDS011;6583;42.632;23.298;2023-03-13T08:30:17;13.27;;;10.23;;
13032;SDS011;6583;42.632;23.298;2023-03-13T08:32:44;15.03;;;10.57;;
13032;SDS011;6583;42.632;23.298;2023-03-13T08:35:10;18.37;;;10.80;;
13032;SDS011;6583;42.632;23.298;2023-03-13T08:37:37;12.27;;;10.37;;
13032;SDS011;6583;42.632;23.298;2023-03-13T08:40:04;15.57;;;10.43;;
13032;SDS011;6583;42.632;23.298;2023-03-13T08:42:37;12.50;;;10.40;;
13032;SDS011;6583;42.632;23.298;2023-03-13T08:45:05;13.63;;;10.30;;
13032;SDS011;6583;42.632;23.298;2023-03-13T08:47:32;13.97;;;11.07;;
13032;SDS011;6583;42.632;23.298;2023-03-13T08:49:59;13.80;;;11.37;;
13032;SDS011;6583;42.632;23.298;2023-03-13T08:52:26;16.03;;;11.50;;
13032;SDS011;6583;42.632;23.298;2023-03-13T08:54:52;13.40;;;10.57;;
13032;SDS011;6583;42.632;23.298;2023-03-13T08:57:22;15.53;;;12.03;;
13032;SDS011;6583;42.632;23.298;2023-03-13T08:59:50;13.23;;;11.37;;
13032;SDS011;6583;42.632;23.298;2023-03-13T09:02:17;13.70;;;11.40;;
13032;SDS011;6583;42.632;23.298;2023-03-13T09:04:45;13.77;;;11.60;;
13032;SDS011;6583;42.632;23.298;2023-03-13T09:07:13;13.10;;;11.70;;
13032;SDS011;6583;42.632;23.298;2023-03-13T09:09:40;12.83;;;11.50;;
13032;SDS011;6583;42.632;23.298;2023-03-13T09:12:08;12.70;;;11.40;;
13032;SDS011;6583;42.632;23.298;2023-03-13T09:14:35;14.37;;;11.57;;
13032;SDS011;6583;42.632;23.298;2023-03-13T09:17:03;13.70;;;12.30;;
13032;SDS011;6583;42.632;23.298;2023-03-13T09:19:29;14.13;;;11.67;;
13032;SDS011;6583;42.632;23.298;2023-03-13T09:21:56;16.47;;;11.57;;
13032;SDS011;6583;42.632;23.298;2023-03-13T09:24:23;15.17;;;12.13;;
13032;SDS011;6583;42.632;23.298;2023-03-13T09:26:50;14.60;;;11.10;;
13032;SDS011;6583;42.632;23.298;2023-03-13T09:29:17;14.90;;;12.07;;
13032;SDS011;6583;42.632;23.298;2023-03-13T09:31:44;16.47;;;11.87;;
13032;SDS011;6583;42.632;23.298;2023-03-13T09:34:12;13.57;;;11.90;;
13032;SDS011;6583;42.632;23.298;2023-03-13T09:36:38;15.07;;;11.93;;
13032;SDS011;6583;42.632;23.298;2023-03-13T09:39:05;17.93;;;12.27;;
13032;SDS011;6583;42.632;23.298;2023-03-13T09:41:33;14.33;;;12.80;;
13032;SDS011;6583;42.632;23.298;2023-03-13T09:44:05;14.93;;;12.43;;
13032;SDS011;6583;42.632;23.298;2023-03-13T09:46:37;15.30;;;12.90;;
13032;SDS011;6583;42.632;23.298;2023-03-13T09:49:13;14.73;;;12.60;;
13032;SDS011;6583;42.632;23.298;2023-03-13T09:51:43;18.47;;;12.73;;
13032;SDS011;6583;42.632;23.298;2023-03-13T09:54:17;15.73;;;12.50;;
13032;SDS011;6583;42.632;23.298;2023-03-13T09:56:51;16.50;;;13.77;;
13032;SDS011;6583;42.632;23.298;2023-03-13T09:59:23;15.03;;;13.13;;
13032;SDS011;6583;42.632;23.298;2023-03-13T10:01:56;17.43;;;13.50;;
13032;SDS011;6583;42.632;23.298;2023-03-13T10:04:28;16.33;;;13.67;;
13032;SDS011;6583;42.632;23.298;2023-03-13T10:07:01;17.50;;;13.60;;
13032;SDS011;6583;42.632;23.298;2023-03-13T10:09:28;16.03;;;12.93;;
13032;SDS011;6583;42.632;23.298;2023-03-13T10:11:59;15.83;;;14.13;;
13032;SDS011;6583;42.632;23.298;2023-03-13T10:14:34;17.67;;;13.80;;
13032;SDS011;6583;42.632;23.298;2023-03-13T10:17:09;19.33;;;13.50;;
13032;SDS011;6583;42.632;23.298;2023-03-13T10:19:47;16.63;;;13.70;;
13032;SDS011;6583;42.632;23.298;2023-03-13T10:22:21;15.17;;;13.33;;
13032;SDS011;6583;42.632;23.298;2023-03-13T10:24:50;16.17;;;14.40;;
13032;SDS011;6583;42.632;23.298;2023-03-13T10:27:22;18.07;;;14.57;;
13032;SDS011;6583;42.632;23.298;2023-03-13T10:29:48;18.03;;;15.23;;
13032;SDS011;6583;42.632;23.298;2023-03-13T10:32:15;16.67;;;14.00;;
13032;SDS011;6583;42.632;23.298;2023-03-13T10:34:44;18.53;;;14.97;;
13032;SDS011;6583;42.632;23.298;2023-03-13T10:37:19;21.50;;;15.43;;
13032;SDS011;6583;42.632;23.298;2023-03-13T10:39:48;19.40;;;14.80;;
13032;SDS011;6583;42.632;23.298;2023-03-13T10:42:19;16.83;;;14.63;;
13032;SDS011;6583;42.632;23.298;2023-03-13T10:44:54;19.87;;;14.93;;
13032;SDS011;6583;42.632;23.298;2023-03-13T10:47:23;20.60;;;15.67;;
13032;SDS011;6583;42.632;23.298;2023-03-13T10:49:54;17.90;;;15.43;;
13032;SDS011;6583;42.632;23.298;2023-03-13T10:52:29;19.50;;;15.27;;
13032;SDS011;6583;42.632;23.298;2023-03-13T10:54:59;21.43;;;15.43;;
13032;SDS011;6583;42.632;23.298;2023-03-13T10:57:28;17.93;;;15.40;;
13032;SDS011;6583;42.632;23.298;2023-03-13T10:59:56;18.17;;;14.73;;
13032;SDS011;6583;42.632;23.298;2023-03-13T11:02:26;20.40;;;15.83;;
13032;SDS011;6583;42.632;23.298;2023-03-13T11:04:55;21.00;;;14.90;;
13032;SDS011;6583;42.632;23.298;2023-03-13T11:07:27;20.87;;;15.03;;
13032;SDS011;6583;42.632;23.298;2023-03-13T11:09:58;19.47;;;15.77;;
13032;SDS011;6583;42.632;23.298;2023-03-13T11:12:25;20.77;;;16.20;;
13032;SDS011;6583;42.632;23.298;2023-03-13T11:14:55;17.37;;;15.33;;
13032;SDS011;6583;42.632;23.298;2023-03-13T11:17:24;18.83;;;15.53;;
13032;SDS011;6583;42.632;23.298;2023-03-13T11:20:13;22.30;;;15.47;;
13032;SDS011;6583;42.632;23.298;2023-03-13T11:23:00;17.37;;;14.27;;
13032;SDS011;6583;42.632;23.298;2023-03-13T11:25:38;20.40;;;15.80;;
13032;SDS011;6583;42.632;23.298;2023-03-13T11:28:17;18.40;;;15.07;;
13032;SDS011;6583;42.632;23.298;2023-03-13T11:30:58;16.47;;;14.73;;
13032;SDS011;6583;42.632;23.298;2023-03-13T11:33:39;17.13;;;15.03;;
13032;SDS011;6583;42.632;23.298;2023-03-13T11:36:19;18.27;;;14.80;;
13032;SDS011;6583;42.632;23.298;2023-03-13T11:38:52;17.10;;;15.13;;
13032;SDS011;6583;42.632;23.298;2023-03-13T11:41:35;19.60;;;16.73;;
13032;SDS011;6583;42.632;23.298;2023-03-13T11:47:04;21.50;;;15.90;;
13032;SDS011;6583;42.632;23.298;2023-03-13T11:49:50;19.90;;;15.60;;
13032;SDS011;6583;42.632;23.298;2023-03-13T11:52:45;17.40;;;15.23;;
13032;SDS011;6583;42.632;23.298;2023-03-13T11:55:37;18.93;;;15.20;;
13032;SDS011;6583;42.632;23.298;2023-03-13T11:58:26;17.90;;;15.33;;
13032;SDS011;6583;42.632;23.298;2023-03-13T12:01:03;19.80;;;16.10;;
13032;SDS011;6583;42.632;23.298;2023-03-13T12:03:35;17.73;;;15.80;;
13032;SDS011;6583;42.632;23.298;2023-03-13T12:06:11;19.23;;;16.43;;
13032;SDS011;6583;42.632;23.298;2023-03-13T12:08:48;19.87;;;16.90;;
13032;SDS011;6583;42.632;23.298;2023-03-13T12:11:21;18.73;;;15.40;;
13032;SDS011;6583;42.632;23.298;2023-03-13T12:13:53;20.27;;;16.70;;
13032;SDS011;6583;42.632;23.298;2023-03-13T12:16:25;19.43;;;16.07;;
13032;SDS011;6583;42.632;23.298;2023-03-13T12:19:03;19.17;;;16.23;;
13032;SDS011;6583;42.632;23.298;2023-03-13T12:21:31;19.20;;;15.37;;
13032;SDS011;6583;42.632;23.298;2023-03-13T12:24:03;20.47;;;15.97;;
13032;SDS011;6583;42.632;23.298;2023-03-13T12:26:38;20.07;;;15.70;;
13032;SDS011;6583;42.632;23.298;2023-03-13T12:29:11;20.17;;;16.57;;
13032;SDS011;6583;42.632;23.298;2023-03-13T12:31:42;20.13;;;16.27;;
13032;SDS011;6583;42.632;23.298;2023-03-13T12:34:16;19.37;;;16.57;;
13032;SDS011;6583;42.632;23.298;2023-03-13T12:36:47;18.97;;;15.97;;
13032;SDS011;6583;42.632;23.298;2023-03-13T12:39:21;18.97;;;15.83;;
13032;SDS011;6583;42.632;23.298;2023-03-13T12:41:56;19.70;;;16.03;;
13032;SDS011;6583;42.632;23.298;2023-03-13T12:44:34;19.47;;;16.17;;
13032;SDS011;6583;42.632;23.298;2023-03-13T12:47:05;19.70;;;15.87;;
13032;SDS011;6583;42.632;23.298;2023-03-13T12:49:52;20.97;;;16.67;;
13032;SDS011;6583;42.632;23.298;2023-03-13T12:52:55;17.80;;;15.90;;
13032;SDS011;6583;42.632;23.298;2023-03-13T12:55:48;19.30;;;15.77;;
13032;SDS011;6583;42.632;23.298;2023-03-13T12:58:38;18.77;;;15.70;;
13032;SDS011;6583;42.632;23.298;2023-03-13T13:01:11;17.13;;;15.23;;
13032;SDS011;6583;42.632;23.298;2023-03-13T13:03:45;20.97;;;16.07;;
13032;SDS011;6583;42.632;23.298;2023-03-13T13:06:17;18.50;;;15.73;;
13032;SDS011;6583;42.632;23.298;2023-03-13T13:08:46;20.77;;;16.30;;
13032;SDS011;6583;42.632;23.298;2023-03-13T13:17:50;17.10;;;15.30;;
13032;SDS011;6583;42.632;23.298;2023-03-13T13:20:35;21.67;;;17.07;;
13032;SDS011;6583;42.632;23.298;2023-03-13T13:32:34;18.57;;;16.03;;
13032;SDS011;6583;42.632;23.298;2023-03-13T13:38:26;19.93;;;15.83;;
13032;SDS011;6583;42.632;23.298;2023-03-13T13:41:01;22.27;;;16.37;;
13032;SDS011;6583;42.632;23.298;2023-03-13T13:43:30;19.50;;;16.07;;
13032;SDS011;6583;42.632;23.298;2023-03-13T13:46:00;23.27;;;16.77;;
13032;SDS011;6583;42.632;23.298;2023-03-13T13:48:33;18.73;;;16.20;;
13032;SDS011;6583;42.632;23.298;2023-03-13T13:51:23;19.70;;;16.10;;
13032;SDS011;6583;42.632;23.298;2023-03-13T13:53:54;24.33;;;17.73;;
13032;SDS011;6583;42.632;23.298;2023-03-13T14:02:10;19.97;;;16.53;;
13032;SDS011;6583;42.632;23.298;2023-03-13T14:04:41;18.00;;;16.07;;
13032;SDS011;6583;42.632;23.298;2023-03-13T14:07:14;22.70;;;17.30;;
13032;SDS011;6583;42.632;23.298;2023-03-13T14:09:46;19.87;;;16.17;;
13032;SDS011;6583;42.632;23.298;2023-03-13T14:12:24;21.83;;;17.27;;
13032;SDS011;6583;42.632;23.298;2023-03-13T14:15:05;21.07;;;16.23;;
13032;SDS011;6583;42.632;23.298;2023-03-13T14:17:38;20.17;;;16.43;;
13032;SDS011;6583;42.632;23.298;2023-03-13T14:20:15;20.93;;;16.00;;
13032;SDS011;6583;42.632;23.298;2023-03-13T14:22:45;17.83;;;15.67;;
13032;SDS011;6583;42.632;23.298;2023-03-13T14:25:13;20.73;;;16.47;;
13032;SDS011;6583;42.632;23.298;2023-03-13T14:27:43;22.67;;;16.10;;
13032;SDS011;6583;42.632;23.298;2023-03-13T14:30:12;20.90;;;16.50;;
13032;SDS011;6583;42.632;23.298;2023-03-13T14:32:40;20.07;;;16.50;;
13032;SDS011;6583;42.632;23.298;2023-03-13T14:35:08;22.13;;;16.67;;
13032;SDS011;6583;42.632;23.298;2023-03-13T14:37:37;22.20;;;18.90;;
13032;SDS011;6583;42.632;23.298;2023-03-13T14:40:09;21.67;;;16.97;;
13032;SDS011;6583;42.632;23.298;2023-03-13T14:42:45;27.20;;;17.60;;
13032;SDS011;6583;42.632;23.298;2023-03-13T14:45:14;18.53;;;15.37;;
13032;SDS011;6583;42.632;23.298;2023-03-13T14:47:46;20.03;;;15.40;;
13032;SDS011;6583;42.632;23.298;2023-03-13T14:50:16;18.87;;;15.83;;
13032;SDS011;6583;42.632;23.298;2023-03-13T14:52:44;17.63;;;14.70;;
13032;SDS011;6583;42.632;23.298;2023-03-13T14:58:24;18.80;;;14.07;;
13032;SDS011;6583;42.632;23.298;2023-03-13T15:00:52;17.93;;;14.23;;
13032;SDS011;6583;42.632;23.298;2023-03-13T15:03:21;16.37;;;13.67;;
13032;SDS011;6583;42.632;23.298;2023-03-13T15:06:03;17.37;;;13.97;;
13032;SDS011;6583;42.632;23.298;2023-03-13T15:08:31;19.80;;;13.90;;
13032;SDS011;6583;42.632;23.298;2023-03-13T15:11:00;19.63;;;13.57;;
13032;SDS011;6583;42.632;23.298;2023-03-13T15:13:31;19.53;;;13.83;;
13032;SDS011;6583;42.632;23.298;2023-03-13T15:15:59;17.03;;;13.90;;
13032;SDS011;6583;42.632;23.298;2023-03-13T15:18:29;17.20;;;13.20;;
13032;SDS011;6583;42.632;23.298;2023-03-13T15:20:57;17.23;;;13.53;;